EGPI/ILY METAR and TAF weather

Enter ICAO airport designator
Station Type Date Time Source
EGPI METAR 2019/04/18 20:50 UTC NOAA

EGPI 182050Z AUTO 13005KT 8000 NCD 09/06 Q1026


Station Type Date Time Source
EGPI Decoded METAR 2019/04/18 20:50 UTC NOAA

Islay, United Kingdom (EGPI) 55-40-55N 006-15-24W
Apr 18, 2019 - 04:50 PM EDT / 2019.04.18 2050 UTC
Wind: from the SE (130 degrees) at 6 MPH (5 KT):0
Visibility: 4 mile(s):0
Temperature: 48 F (9 C)
Dew Point: 42 F (6 C)
Relative Humidity: 81%
Pressure (altimeter): 30.30 in. Hg (1026 hPa)
ob: EGPI 182050Z AUTO 13005KT 8000 NCD 09/06 Q1026
cycle: 21

Station Type Date Time Source
EGPI TAF UTC NOAA

Error!

Example: see airport list